This is the latest recevied weather packets stored in our database for station/object KA5FVT. If no packets are shown the sender has not sent any weather packets the latest 10 day(s).
| Time | Temp. | Humidity | Pressure | Rain* | Wind** | Luminosity | Snow |
|---|---|---|---|---|---|---|---|
| 1777152266 | 31.67° C | 63% | 1005.4 hPa | 0 mm | - | - | - |
| 1777150766 | 32.22° C | 61% | 1005.6 hPa | 0 mm | - | - | - |
| 1777149269 | 32.78° C | 61% | 1005.9 hPa | 0 mm | - | - | - |
| 1777144166 | 31.11° C | 66% | 1007.4 hPa | 0 mm | - | - | - |
| 1777141766 | 30° C | 70% | 1007.7 hPa | 0 mm | - | - | - |
| 1777140566 | 30° C | 69% | 1007.8 hPa | 0 mm | - | - | - |
| 1777136966 | 29.44° C | 72% | 1008.1 hPa | 0 mm | - | - | - |
| 1777135766 | 28.89° C | 75% | 1008.1 hPa | 0 mm | - | - | - |
| 1777134866 | 28.33° C | 76% | 1008 hPa | 0 mm | - | - | - |
| 1777133669 | 27.78° C | 77% | 1008 hPa | 0 mm | - | - | - |
| 1777133366 | 27.78° C | 78% | 1008.1 hPa | 0 mm | - | - | - |
| 1777132766 | 27.78° C | 78% | 1008.1 hPa | 0 mm | - | - | - |
| 1777132466 | 27.78° C | 78% | 1008.1 hPa | 0 mm | - | - | - |
| 1777129766 | 26.11° C | 83% | 1008 hPa | 0 mm | - | - | - |
| 1777122566 | 23.89° C | 93% | 1008.3 hPa | 0 mm | - | - | - |
| 1777122266 | 23.89° C | 93% | 1008.3 hPa | 0 mm | - | - | - |
| 1777121066 | 23.89° C | 93% | 1008.2 hPa | 0 mm | - | - | - |
| 1777118366 | 23.33° C | 91% | 1007.5 hPa | 0 mm | - | - | - |
| 1777117766 | 23.89° C | 91% | 1007.5 hPa | 0 mm | - | - | - |
| 1777116866 | 23.89° C | 91% | 1007.3 hPa | 0 mm | - | - | - |
| 1777116269 | 23.89° C | 91% | 1007 hPa | 0 mm | - | - | - |
| 1777113866 | 24.44° C | 90% | 1006.7 hPa | 0 mm | - | - | - |
| 1777113266 | 24.44° C | 90% | 1006.8 hPa | 0 mm | - | - | - |
| 1777110266 | 24.44° C | 89% | 1006.7 hPa | 0 mm | - | - | - |
| 1777107266 | 24.44° C | 89% | 1006.8 hPa | 0 mm | - | - | - |
* Rain latest hour (hover to see other rain measurements)
** Current wind speed in m/s (hover to see current wind gust speed)